»·PEaware :: N6186T KCMA-KSNA

N6186T :: KCMA-KSNA

FLIGHT INFORMATION

Flight Status: Arrived
Operator: Privately registered:
United States
More flights under this callsign
Pilot: Scott A. (32963)
Aircraft: CESSNA 172 SKYHAWK
(C172)
More flights by this aircraft type
Origin: KCMA Camarillo
United States
Destination: KSNA John Wayne-Orange Co
United States
More flights between these airports :: More routes between these airports
Route: GUY BE LAX HERMOSILLO WILMA FERRY TOPEKA
File this flight plan on PilotEdge
Remarks: Cat 10
Altitude:
(Current/Filed)
5,500ft
Speed:
(Current/Filed)
105kts
Departed: 10-Jan-21 09:06 AM
Arrived: 10-Jan-21 09:55 AM
Distance/Time
Traveled:
69nm/0:49
Distance/Time
To Go:
Arrived

Flight Plot

Page will automatically refresh every two minutes.

Flight plan parsing failed; only flown route is shown


Map Options




Map Legend


Flown Route
Filed Route
Departure Airport
Arrival Airport
Navaid (VOR, NDB)
Fix

Horizontal Profiles

Position Reports

Time Latitude Longitude Heading Altitude Ground
Speed
10-Jan-21 08:51 34.210645 -119.085546 359 73ft 0kts
10-Jan-21 08:52 34.210645 -119.085546 359 73ft 0kts
10-Jan-21 08:53 34.210645 -119.085546 359 73ft 0kts
10-Jan-21 08:54 34.210645 -119.085546 359 73ft 0kts
10-Jan-21 08:55 34.210645 -119.085546 359 73ft 0kts
10-Jan-21 08:56 34.210645 -119.085546 359 73ft 0kts
10-Jan-21 08:57 34.210645 -119.085546 359 73ft 0kts
10-Jan-21 08:58 34.210645 -119.085546 359 73ft 0kts
10-Jan-21 08:59 34.210645 -119.085546 359 73ft 0kts
10-Jan-21 09:00 34.210645 -119.085546 359 73ft 0kts
10-Jan-21 09:01 34.210645 -119.085546 359 73ft 0kts
10-Jan-21 09:02 34.212457 -119.084303 352 76ft 13kts
10-Jan-21 09:04 34.212819 -119.084415 335 76ft 0kts
10-Jan-21 09:05 34.212819 -119.084415 335 76ft 0kts
10-Jan-21 09:06 34.213725 -119.087619 270 73ft 62kts
10-Jan-21 09:07 34.202615 -119.101146 141 951ft 77kts
10-Jan-21 09:08 34.205687 -119.077883 64 1889ft 75kts
10-Jan-21 09:09 34.209973 -119.053517 88 2764ft 74kts
10-Jan-21 09:10 34.209538 -119.028670 93 3582ft 73kts
10-Jan-21 09:11 34.208238 -119.004126 94 4347ft 73kts
10-Jan-21 09:12 34.206813 -118.979707 94 5068ft 72kts
10-Jan-21 09:13 34.205046 -118.950056 94 5257ft 107kts
10-Jan-21 09:14 34.202749 -118.912306 94 5253ft 114kts
10-Jan-21 09:15 34.200413 -118.873936 94 5243ft 114kts
10-Jan-21 09:16 34.199495 -118.836016 77 5243ft 112kts
10-Jan-21 09:17 34.205013 -118.798980 80 5243ft 112kts
10-Jan-21 09:18 34.209820 -118.761730 81 5243ft 112kts
10-Jan-21 09:18 34.213376 -118.731058 83 5223ft 109kts
10-Jan-21 09:20 34.207524 -118.689265 109 5162ft 105kts
10-Jan-21 09:21 34.195296 -118.658940 117 5281ft 98kts
10-Jan-21 09:21 34.184576 -118.633874 116 5285ft 102kts
10-Jan-21 09:22 34.172876 -118.602223 113 5286ft 103kts
10-Jan-21 09:24 34.157291 -118.566465 119 5292ft 101kts
10-Jan-21 09:24 34.143312 -118.544189 131 5289ft 99kts
10-Jan-21 09:25 34.120546 -118.525901 159 5285ft 99kts
10-Jan-21 09:26 34.094630 -118.514097 157 5267ft 100kts
10-Jan-21 09:27 34.068809 -118.501623 157 5268ft 99kts
10-Jan-21 09:28 34.043029 -118.489076 157 5268ft 98kts
10-Jan-21 09:29 34.017210 -118.476408 157 5268ft 98kts
10-Jan-21 09:30 33.991790 -118.463833 157 5268ft 98kts
10-Jan-21 09:31 33.966406 -118.451157 157 5268ft 98kts
10-Jan-21 09:32 33.941047 -118.438364 156 5268ft 98kts
10-Jan-21 09:33 33.920545 -118.421361 126 5280ft 97kts
10-Jan-21 09:34 33.902895 -118.395952 133 5268ft 99kts
10-Jan-21 09:35 33.883468 -118.372347 134 5268ft 99kts
10-Jan-21 09:36 33.863865 -118.348851 135 5269ft 100kts
10-Jan-21 09:37 33.841449 -118.321987 135 5269ft 120kts
10-Jan-21 09:38 33.818824 -118.291722 129 5268ft 122kts
10-Jan-21 09:39 33.790327 -118.269343 150 5268ft 122kts
10-Jan-21 09:40 33.760757 -118.248907 150 5268ft 123kts
10-Jan-21 09:41 33.734337 -118.223537 126 5268ft 122kts
10-Jan-21 09:42 33.715952 -118.188825 122 5268ft 123kts
10-Jan-21 09:43 33.699415 -118.152910 108 5268ft 122kts
10-Jan-21 09:44 33.688795 -118.113920 108 5268ft 123kts
10-Jan-21 09:45 33.677688 -118.074947 119 5267ft 123kts
10-Jan-21 09:46 33.659410 -118.041014 123 5268ft 118kts
10-Jan-21 09:47 33.642238 -118.009317 123 5267ft 104kts
10-Jan-21 09:48 33.633862 -117.978984 65 5097ft 102kts
10-Jan-21 09:49 33.647276 -117.946947 54 4023ft 115kts
10-Jan-21 09:50 33.671958 -117.922785 55 2681ft 111kts
10-Jan-21 09:51 33.683274 -117.887298 52 1245ft 109kts
10-Jan-21 09:52 33.701555 -117.867666 64 458ft 68kts
10-Jan-21 09:53 33.688769 -117.860613 203 206ft 70kts
10-Jan-21 09:54 33.675338 -117.869075 208 60ft 24kts
10-Jan-21 09:55 33.674217 -117.870737 297 60ft 0kts
10-Jan-21 09:56 33.674217 -117.870737 297 60ft 0kts
10-Jan-21 09:57 33.673026 -117.872164 243 60ft 9kts

Navigation Log

Ident Type
Flight plan parsing failed, navigation log unavailable